Data for 01/03/2014

Time Sea-Level Adjusted Pressure Absolute Pressure Temperature Relative Humidity Dew Point   
(mb) (inHg) (mb) (inHg) (C) (F) (%) (C) (F)
00:05 1013 29.91 843 24.89 2.5 36.6 59 -4.6 23.7
00:10 1013 29.91 843 24.89 2.3 36.2 60 -4.7 23.6
00:15 1013 29.91 843 24.89 2.3 36.1 60 -4.7 23.5
00:20 1013 29.91 842 24.86 2.3 36.2 61 -4.5 24
00:25 1013 29.91 842 24.86 2.2 35.9 61 -4.5 23.8
00:30 1013 29.91 842 24.86 1.9 35.4 61 -4.9 23.3
00:35 1013 29.91 842 24.86 2.4 36.3 59 -4.7 23.5
00:40 1013 29.91 842 24.86 2.3 36.1 60 -4.8 23.4
00:45 1013 29.91 842 24.86 2.6 36.7 58 -4.9 23.2
00:50 1013 29.91 842 24.86 2.8 37.1 58 -4.6 23.7
00:55 1013 29.91 842 24.86 2.8 37.1 56 -5 23
01:00 1012 29.88 842 24.86 3.4 38.2 55 -4.7 23.6
01:05 1012 29.88 842 24.86 3.7 38.7 54 -4.6 23.7
01:10 1012 29.88 842 24.86 3.6 38.4 56 -4.4 24.1
01:15 1012 29.88 842 24.86 3.2 37.8 57 -4.4 24.1
01:20 1012 29.88 841 24.83 3.3 38 56 -4.7 23.5
01:25 1012 29.88 841 24.83 3.7 38.6 56 -4.3 24.3
01:30 1012 29.88 841 24.83 2.2 35.9 61 -4.5 23.8
01:35 1012 29.88 841 24.83 2.4 36.4 59 -4.8 23.3
01:40 1012 29.88 841 24.83 3.1 37.6 56 -4.8 23.4
01:45 1012 29.88 841 24.83 3.6 38.4 56 -4.5 23.9
01:50 1011 29.85 841 24.83 4.1 39.5 54 -4.2 24.4
01:55 1011 29.85 841 24.83 4.2 39.5 55 -4.1 24.6
02:00 1011 29.85 840 24.81 3.9 39 56 -4 24.8
02:05 1011 29.85 840 24.81 3.8 38.8 54 -4.7 23.6
02:10 1011 29.85 840 24.81 4.5 40 51 -4.7 23.6
02:15 1011 29.85 840 24.81 5 41 49 -4.7 23.5
02:20 1011 29.85 840 24.81 5.5 41.9 48 -4.6 23.7
02:25 1011 29.85 840 24.81 5.5 41.9 48 -4.7 23.5
02:30 1010 29.83 840 24.81 6 42.8 42 -5.9 21.4
02:35 1010 29.83 839 24.78 7.3 45.1 40 -5.4 22.2
02:40 1010 29.83 839 24.78 7.2 45 41 -5.3 22.5
02:45 1010 29.83 839 24.78 7.1 44.8 40 -5.5 22.1
02:50 1010 29.83 839 24.78 7 44.6 41 -5.4 22.2
02:55 1010 29.83 839 24.78 6.9 44.4 39 -6 21.3
03:00 1010 29.83 839 24.78 7 44.5 39 -6.1 21.1
03:05 1010 29.83 839 24.78 7.1 44.7 40 -5.7 21.8
03:10 1010 29.83 839 24.78 6.9 44.4 40 -5.7 21.7
03:15 1009 29.8 839 24.78 6.7 44 41 -5.6 22
03:20 1009 29.8 838 24.75 6.4 43.5 43 -5.2 22.6
03:25 1009 29.8 839 24.78 6.1 43.1 40 -6.4 20.4
03:30 1009 29.8 838 24.75 6.9 44.4 39 -6.1 21.1
03:35 1009 29.8 838 24.75 7.2 45 39 -5.8 21.6
03:40 1009 29.8 838 24.75 7.1 44.9 40 -5.6 22
03:45 1009 29.8 838 24.75 7 44.5 41 -5.4 22.3
03:50 1009 29.8 838 24.75 6.9 44.4 40 -5.6 21.9
03:55 1009 29.8 838 24.75 6.8 44.3 42 -5.1 22.8
04:00 1008 29.77 838 24.75 6.7 44.1 42 -5.3 22.4
04:05 1008 29.77 837 24.72 6.9 44.3 41 -5.5 22.2
04:10 1008 29.77 837 24.72 7 44.6 41 -5.3 22.4
04:15 1008 29.77 837 24.72 7.1 44.7 39 -6 21.3
04:20 1008 29.77 837 24.72 7.3 45.1 38 -6.2 20.9
04:25 1008 29.77 837 24.72 7.3 45.2 41 -5.2 22.7
04:30 1008 29.77 837 24.72 7.3 45.2 37 -6.3 20.6
04:35 1008 29.77 837 24.72 7.3 45.1 40 -5.4 22.3
04:40 1008 29.77 837 24.72 7.1 44.8 41 -5.1 22.8
04:45 1008 29.77 837 24.72 6.9 44.5 40 -5.7 21.8
04:50 1008 29.77 837 24.72 7 44.6 39 -6 21.2
04:55 1008 29.77 837 24.72 7.4 45.3 38 -6 21.2
05:00 1008 29.77 837 24.72 7.4 45.2 38 -6.1 20.9
05:05 1008 29.77 837 24.72 7.4 45.3 36 -6.5 20.2
05:10 1008 29.77 837 24.72 7.6 45.6 36 -6.7 19.9
05:15 1008 29.77 837 24.72 7.8 46 34 -7.1 19.3
05:20 1007 29.74 837 24.72 7.9 46.2 34 -7.1 19.1
05:25 1007 29.74 836 24.69 8 46.4 35 -6.7 20
05:30 1007 29.74 836 24.69 7.8 46.1 36 -6.5 20.3
05:35 1007 29.74 836 24.69 7.6 45.8 36 -6.6 20.1
05:40 1007 29.74 836 24.69 7.6 45.7 38 -5.9 21.3
05:45 1007 29.74 836 24.69 7.7 45.9 35 -6.7 20
05:50 1007 29.74 836 24.69 8.1 46.5 37 -5.6 21.9
05:55 1006 29.71 835 24.66 7.8 46 39 -5.4 22.2
06:00 1006 29.71 835 24.66 7.8 46 38 -5.7 21.7
06:05 1006 29.71 835 24.66 8.1 46.6 39 -5.1 22.7
06:10 1005 29.68 835 24.66 7.8 46 39 -5.3 22.4
06:15 1005 29.68 834 24.63 7.9 46.2 39 -5.3 22.4
06:20 1005 29.68 834 24.63 7.7 45.8 39 -5.3 22.5
06:25 1005 29.68 834 24.63 7.6 45.7 39 -5.6 22
06:30 1005 29.68 834 24.63 7.7 45.9 38 -5.7 21.7
06:35 1005 29.68 834 24.63 7.9 46.3 37 -5.8 21.6
06:40 1005 29.68 834 24.63 8 46.4 38 -5.3 22.5
06:45 1005 29.68 834 24.63 7.7 45.9 39 -5.3 22.4
06:50 1005 29.68 834 24.63 7.4 45.4 40 -5.2 22.7
06:55 1005 29.68 834 24.63 7.5 45.4 40 -5.3 22.4
07:00 1005 29.68 834 24.63 7.5 45.4 40 -5.2 22.6
07:05 1005 29.68 834 24.63 7.4 45.3 41 -4.9 23.2
07:10 1004 29.65 834 24.63 7.2 45 42 -4.7 23.5
07:15 1004 29.65 834 24.63 7.1 44.7 43 -4.7 23.5
07:20 1004 29.65 834 24.63 6.9 44.4 44 -4.4 24.1
07:25 1004 29.65 834 24.63 6.8 44.2 45 -4.2 24.4
07:30 1005 29.68 834 24.63 6.9 44.4 45 -4.1 24.6
07:35 1005 29.68 834 24.63 7 44.6 47 -3.6 25.6
07:40 1005 29.68 834 24.63 6.8 44.2 48 -3.5 25.6
07:45 1005 29.68 834 24.63 6.6 43.8 50 -3.1 26.5
07:50 1005 29.68 834 24.63 6.2 43.1 53 -2.8 27
07:55 1005 29.68 834 24.63 5.9 42.6 54 -2.6 27.3
08:00 1005 29.68 834 24.63 5.7 42.2 56 -2.5 27.6
08:05 1005 29.68 834 24.63 5.5 41.9 57 -2.4 27.6
08:10 1005 29.68 834 24.63 5.5 41.8 58 -2.2 28.1
08:15 1005 29.68 834 24.63 5.2 41.4 60 -2 28.4
08:20 1005 29.68 834 24.63 5.1 41.1 60 -2 28.4
08:25 1005 29.68 834 24.63 5 41 60 -2.1 28.2
08:30 1005 29.68 834 24.63 5 41 60 -2.1 28.2
08:35 1005 29.68 834 24.63 5 41.1 59 -2.2 28
08:40 1005 29.68 834 24.63 4.9 40.9 59 -2.4 27.6
08:45 1005 29.68 834 24.63 5 40.9 58 -2.6 27.4
08:50 1005 29.68 834 24.63 5 40.9 58 -2.5 27.5
08:55 1004 29.65 834 24.63 4.9 40.8 59 -2.5 27.5
09:00 1004 29.65 834 24.63 4.9 40.9 59 -2.5 27.5
09:05 1004 29.65 834 24.63 5 41 57 -2.8 26.9
09:10 1004 29.65 833 24.6 5.2 41.3 57 -2.7 27.1
09:15 1004 29.65 833 24.6 5.2 41.4 56 -2.8 27
09:20 1005 29.68 834 24.63 5.3 41.5 57 -2.5 27.5
09:25 1005 29.68 834 24.63 5.1 41.1 60 -2 28.3
09:30 1005 29.68 834 24.63 4.7 40.5 62 -2 28.4
09:35 1005 29.68 834 24.63 4.6 40.3 63 -1.8 28.8
09:40 1004 29.65 834 24.63 4.4 40 63 -2 28.4
09:45 1005 29.68 834 24.63 4.4 39.9 63 -2.1 28.3
09:50 1004 29.65 834 24.63 4.4 39.9 64 -1.9 28.6
09:55 1004 29.65 834 24.63 4.3 39.8 64 -2 28.4
10:00 1004 29.65 834 24.63 4.4 39.9 62 -2.3 27.9
10:05 1004 29.65 834 24.63 4.5 40.1 62 -2.1 28.2
10:10 1004 29.65 834 24.63 4.3 39.8 65 -1.7 29
10:15 1004 29.65 834 24.63 4.2 39.5 64 -2.1 28.3
10:20 1004 29.65 834 24.63 4.4 39.8 66 -1.5 29.3
10:25 1004 29.65 833 24.6 4.1 39.3 66 -1.7 28.9
10:30 1004 29.65 834 24.63 3.9 38.9 72 -0.8 30.6
10:35 1005 29.68 834 24.63 3.3 38 71 -1.4 29.5
10:40 1005 29.68 834 24.63 3.3 37.9 76 -0.5 31
10:45 1005 29.68 834 24.63 2.9 37.2 77 -0.7 30.8
10:50 1005 29.68 834 24.63 2.7 36.9 79 -0.6 30.8
10:55 1005 29.68 835 24.66 2.6 36.6 82 -0.2 31.6
11:00 1006 29.71 835 24.66 2.4 36.4 81 -0.4 31.2
11:05 1005 29.68 835 24.66 2.3 36.2 80 -0.7 30.8
11:10 1005 29.68 834 24.63 2.5 36.6 77 -1 30.2
11:15 1005 29.68 834 24.63 2.8 37.1 77 -0.8 30.5
11:20 1005 29.68 834 24.63 3.1 37.5 73 -1.3 29.7
11:25 1005 29.68 834 24.63 3.8 38.9 69 -1.4 29.5
11:30 1005 29.68 834 24.63 4.1 39.4 69 -1 30.2
11:35 1005 29.68 834 24.63 4.1 39.3 69 -1.1 30
11:40 1005 29.68 835 24.66 4 39.3 68 -1.4 29.5
11:45 1005 29.68 835 24.66 4.2 39.5 67 -1.3 29.6
11:50 1005 29.68 835 24.66 4 39.2 68 -1.3 29.7
11:55 1006 29.71 835 24.66 4 39.2 69 -1.2 29.8
12:00 1006 29.71 835 24.66 3.8 38.8 70 -1.2 29.9
12:05 1006 29.71 835 24.66 3.5 38.2 70 -1.6 29.2
12:10 1006 29.71 835 24.66 3.5 38.3 70 -1.5 29.3
12:15 1006 29.71 835 24.66 3.6 38.4 66 -2.3 27.9
12:20 1006 29.71 835 24.66 3.7 38.7 60 -3.3 26.1
12:25 1006 29.71 835 24.66 3.8 38.9 61 -3.1 26.4
12:30 1006 29.71 835 24.66 3.8 38.9 58 -3.6 25.5
12:35 1006 29.71 835 24.66 3.7 38.7 56 -4.2 24.5
12:40 1006 29.71 835 24.66 3.6 38.5 54 -4.9 23.2
12:45 1006 29.71 835 24.66 3.5 38.4 49 -6.2 20.8
12:50 1006 29.71 835 24.66 3.5 38.3 47 -6.7 20
12:55 1006 29.71 835 24.66 3.5 38.3 46 -7 19.5
13:00 1006 29.71 835 24.66 3.5 38.3 47 -6.8 19.8
13:05 1006 29.71 836 24.69 3.4 38.1 46 -7.2 19
13:10 1006 29.71 835 24.66 3.5 38.2 45 -7.5 18.5
13:15 1006 29.71 836 24.69 3.8 38.9 44 -7.4 18.7
13:20 1006 29.71 836 24.69 3.8 38.9 43 -7.6 18.3
13:25 1006 29.71 836 24.69 3.7 38.6 44 -7.6 18.3
13:30 1007 29.74 836 24.69 3.6 38.4 39 -9 15.8
13:35 1007 29.74 836 24.69 3.3 37.9 39 -9.3 15.2
13:40 1007 29.74 836 24.69 3 37.4 41 -8.9 16
13:45 1007 29.74 836 24.69 2.8 37 44 -8.4 16.9
13:50 1007 29.74 836 24.69 2.7 36.8 43 -8.7 16.4
13:55 1007 29.74 836 24.69 2.7 36.9 38 -10.1 13.8
14:00 1007 29.74 836 24.69 3 37.4 40 -9.4 15
14:05 1007 29.74 836 24.69 3 37.4 41 -9.1 15.7
14:10 1007 29.74 836 24.69 2.9 37.2 45 -8.1 17.5
14:15 1007 29.74 836 24.69 2.4 36.4 47 -7.7 18.2
14:20 1007 29.74 836 24.69 2.1 35.7 49 -7.7 18.2
14:25 1007 29.74 836 24.69 1.9 35.4 51 -7.2 19.1
14:30 1007 29.74 837 24.72 1.8 35.2 53 -6.8 19.8
14:35 1007 29.74 837 24.72 1.6 34.9 56 -6.3 20.7
14:40 1007 29.74 837 24.72 1.7 35 56 -6.1 21
14:45 1008 29.77 837 24.72 1.9 35.5 53 -6.8 19.8
14:50 1007 29.74 837 24.72 2.6 36.7 45 -8 17.5
14:55 1007 29.74 837 24.72 2.8 37 42 -9 15.8
15:00 1007 29.74 837 24.72 2.8 37 36 -10.9 12.4
15:05 1008 29.77 837 24.72 2.8 37 36 -10.9 12.4
15:10 1008 29.77 837 24.72 2.6 36.7 35 -11.5 11.3
15:15 1008 29.77 837 24.72 2 35.6 35 -11.9 10.7
15:20 1008 29.77 837 24.72 1.8 35.3 34 -12.5 9.5
15:25 1008 29.77 837 24.72 1.7 35 34 -12.5 9.5
15:30 1008 29.77 837 24.72 2.1 35.7 33 -12.8 9
15:35 1008 29.77 837 24.72 2.3 36.2 30 -13.4 7.8
15:40 1008 29.77 837 24.72 2.3 36.2 32 -12.7 9.1
15:45 1008 29.77 837 24.72 2.2 35.9 33 -12.6 9.3
15:50 1008 29.77 837 24.72 2 35.7 32 -12.9 8.9
15:55 1008 29.77 837 24.72 2 35.5 35 -12 10.3
16:00 1009 29.8 838 24.75 2.1 35.9 33 -12.6 9.2
16:05 1009 29.8 838 24.75 2.5 36.6 32 -12.6 9.3
16:10 1009 29.8 838 24.75 2.4 36.3 31 -13 8.6
16:15 1009 29.8 838 24.75 2.6 36.7 31 -12.9 8.7
16:20 1009 29.8 839 24.78 2.6 36.7 31 -12.9 8.7
16:25 1009 29.8 839 24.78 2.4 36.3 30 -13.3 8.1
16:30 1010 29.83 839 24.78 2.4 36.2 30 -13.4 7.9
16:35 1010 29.83 839 24.78 2.4 36.2 31 -13.2 8.2
16:40 1010 29.83 839 24.78 2 35.6 33 -12.6 9.3
16:45 1010 29.83 839 24.78 1.7 35 34 -12.5 9.5
16:50 1010 29.83 839 24.78 1.4 34.5 33 -13.2 8.3
16:55 1010 29.83 839 24.78 1.4 34.6 33 -13.3 8.1
17:00 1010 29.83 839 24.78 1.5 34.8 34 -12.6 9.4
17:05 1010 29.83 839 24.78 1.4 34.5 35 -12.4 9.7
17:10 1010 29.83 839 24.78 1.2 34.1 36 -12.3 9.9
17:15 1010 29.83 839 24.78 1 33.8 37 -12.2 10.1
17:20 1010 29.83 839 24.78 0.9 33.5 36 -12.5 9.4
17:25 1010 29.83 840 24.81 0.7 33.3 37 -12.4 9.7
17:30 1011 29.85 840 24.81 0.7 33.3 37 -12.2 10
17:35 1011 29.85 840 24.81 0.6 33.1 40 -11.5 11.3
17:40 1011 29.85 840 24.81 0.5 32.8 41 -11.4 11.5
17:45 1011 29.85 840 24.81 0.4 32.8 43 -10.7 12.7
17:50 1011 29.85 840 24.81 0.3 32.6 45 -10.4 13.2
17:55 1011 29.85 840 24.81 -0.3 31.5 61 -6.9 19.6
18:00 1011 29.85 841 24.83 -1 30.2 65 -6.8 19.7
18:05 1011 29.85 841 24.83 -1.3 29.7 65 -7.1 19.3
18:10 1012 29.88 841 24.83 -1.3 29.7 65 -7 19.4
18:15 1012 29.88 841 24.83 -1.5 29.4 67 -6.8 19.7
18:20 1012 29.88 841 24.83 -1.7 28.9 71 -6.2 20.8
18:25 1012 29.88 841 24.83 -2.1 28.2 73 -6.2 20.8
18:30 1012 29.88 841 24.83 -2.2 28 72 -6.7 19.9
18:35 1012 29.88 841 24.83 -2.2 28 73 -6.4 20.5
18:40 1012 29.88 841 24.83 -2.4 27.7 75 -6.2 20.8
18:45 1012 29.88 841 24.83 -2.5 27.5 75 -6.4 20.5
18:50 1012 29.88 841 24.83 -2.5 27.5 74 -6.5 20.4
18:55 1012 29.88 841 24.83 -2.4 27.6 72 -6.8 19.8
19:00 1012 29.88 841 24.83 -2.3 27.8 71 -7 19.5
19:05 1012 29.88 841 24.83 -2.3 27.8 68 -7.4 18.6
19:10 1012 29.88 841 24.83 -2.4 27.7 69 -7.4 18.7
19:15 1012 29.88 841 24.83 -2.3 27.8 67 -7.6 18.3
19:20 1012 29.88 842 24.86 -2.3 27.9 66 -7.8 18
19:25 1012 29.88 842 24.86 -2.2 28.1 64 -8 17.6
19:30 1012 29.88 842 24.86 -2 28.4 64 -8 17.7
19:35 1013 29.91 842 24.86 -2 28.3 67 -7.4 18.6
19:40 1013 29.91 842 24.86 -2.2 28 68 -7.3 18.9
19:45 1013 29.91 842 24.86 -2.3 27.9 68 -7.3 18.8
19:50 1013 29.91 842 24.86 -2.4 27.6 70 -7.1 19.2
19:55 1013 29.91 842 24.86 -2.5 27.5 73 -6.6 20.1
20:00 1013 29.91 842 24.86 -2.8 27 77 -6.2 20.8
20:05 1013 29.91 842 24.86 -3 26.6 78 -6.4 20.5
20:10 1013 29.91 842 24.86 -3.1 26.5 77 -6.5 20.3
20:15 1013 29.91 842 24.86 -3 26.6 76 -6.7 20
20:20 1013 29.91 842 24.86 -3.1 26.5 76 -6.6 20
20:25 1013 29.91 842 24.86 -3.2 26.3 79 -6.4 20.5
20:30 1013 29.91 842 24.86 -3.4 26 78 -6.7 20
20:35 1013 29.91 842 24.86 -3.3 26 77 -6.7 19.9
20:40 1013 29.91 842 24.86 -3.2 26.2 78 -6.6 20.1
20:45 1013 29.91 842 24.86 -3.3 26 81 -6.2 20.9
20:50 1013 29.91 842 24.86 -3.6 25.5 83 -6.2 20.9
20:55 1013 29.91 842 24.86 -3.7 25.4 83 -6.1 21
21:00 1013 29.91 842 24.86 -3.6 25.5 84 -6 21.2
21:05 1013 29.91 842 24.86 -3.6 25.5 84 -5.9 21.3
21:10 1013 29.91 842 24.86 -3.6 25.5 84 -5.9 21.4
21:15 1013 29.91 842 24.86 -3.6 25.5 83 -6.1 21
21:20 1013 29.91 842 24.86 -3.6 25.5 80 -6.7 20
21:25 1013 29.91 842 24.86 -3.6 25.4 78 -7 19.5
21:30 1013 29.91 842 24.86 -3.7 25.3 77 -7.3 18.9
21:35 1013 29.91 843 24.89 -3.8 25.2 76 -7.4 18.7
21:40 1013 29.91 843 24.89 -3.8 25.2 74 -7.7 18.1
21:45 1013 29.91 843 24.89 -3.8 25.1 75 -7.7 18.2
21:50 1013 29.91 843 24.89 -3.9 25 75 -7.7 18.1
21:55 1013 29.91 843 24.89 -3.9 24.9 74 -7.9 17.8
22:00 1013 29.91 843 24.89 -4.1 24.7 77 -7.5 18.4
22:05 1014 29.94 843 24.89 -4.3 24.3 79 -7.4 18.7
22:10 1014 29.94 843 24.89 -4.3 24.3 79 -7.4 18.6
22:15 1014 29.94 843 24.89 -4.3 24.2 79 -7.4 18.6
22:20 1014 29.94 843 24.89 -4.4 24.1 80 -7.4 18.7
22:25 1014 29.94 843 24.89 -4.5 24 81 -7.3 18.8
22:30 1014 29.94 843 24.89 -4.5 23.8 81 -7.3 18.9
22:35 1014 29.94 843 24.89 -4.6 23.7 81 -7.4 18.7
22:40 1014 29.94 843 24.89 -4.7 23.6 81 -7.4 18.7
22:45 1014 29.94 843 24.89 -4.8 23.4 82 -7.3 18.8
22:50 1014 29.94 843 24.89 -4.8 23.3 83 -7.3 18.8
22:55 1014 29.94 843 24.89 -4.8 23.3 83 -7.3 18.8
23:00 1014 29.94 843 24.89 -4.7 23.5 82 -7.3 18.8
23:05 1014 29.94 843 24.89 -4.6 23.7 82 -7.3 18.9
23:10 1014 29.94 843 24.89 -4.7 23.5 80 -7.7 18.2
23:15 1014 29.94 843 24.89 -4.7 23.5 82 -7.4 18.7
23:20 1014 29.94 843 24.89 -4.8 23.4 83 -7.2 19
23:25 1014 29.94 843 24.89 -4.7 23.5 81 -7.5 18.5
23:30 1014 29.94 843 24.89 -4.7 23.6 81 -7.4 18.7
23:35 1014 29.94 843 24.89 -4.7 23.5 81 -7.5 18.4
23:40 1014 29.94 844 24.92 -4.9 23.1 83 -7.4 18.6
23:45 1014 29.94 844 24.92 -5 23.1 83 -7.4 18.7
23:50 1014 29.94 844 24.92 -5 23 83 -7.5 18.6
23:55 1014 29.94 844 24.92 -5 23 83 -7.4 18.6
24:00 1014 29.94 844 24.92 -5.1 22.9 83 -7.5 18.6